Time;durP1;ratioP1;P1;durP2;ratioP2;P2;SDS_P1;SDS_P2;PMS_P1;PMS_P2;Temp;Humidity;BMP_temperature;BMP_pressure;BME280_temperature;BME280_humidity;BME280_pressure;Samples;Min_cycle;Max_cycle;Signal;HPM_P1;HPM_P2
2021/01/19 00:00:43;;;;;;;12.02;7.22;;;5.80;99.90;;;;;;3610236;39;20842;-72
2021/01/19 00:03:10;;;;;;;19.92;6.97;;;5.80;99.90;;;;;;3613485;32;20802;-73
2021/01/19 00:05:36;;;;;;;13.85;6.75;;;5.80;99.90;;;;;;3611930;39;20311;-73
2021/01/19 00:08:03;;;;;;;20.48;6.47;;;5.80;99.90;;;;;;3613376;39;20277;-73
2021/01/19 00:10:29;;;;;;;13.57;6.65;;;5.90;99.90;;;;;;3609956;39;20255;-73
2021/01/19 00:12:57;;;;;;;18.92;6.45;;;5.80;99.90;;;;;;3611359;39;20317;-73
2021/01/19 00:15:23;;;;;;;18.35;7.15;;;5.90;99.90;;;;;;3611227;39;20282;-73
2021/01/19 00:17:50;;;;;;;23.10;6.55;;;5.90;99.90;;;;;;3611469;39;20335;-73
2021/01/19 00:20:16;;;;;;;17.00;6.50;;;5.90;99.90;;;;;;3611528;39;20271;-73
2021/01/19 00:22:43;;;;;;;16.42;6.65;;;5.80;99.90;;;;;;3612853;39;20244;-72
2021/01/19 00:25:10;;;;;;;12.00;5.32;;;5.80;99.90;;;;;;3615675;39;20281;-72
2021/01/19 00:27:37;;;;;;;12.85;6.57;;;5.90;99.90;;;;;;3613146;39;20293;-73
2021/01/19 00:30:05;;;;;;;13.88;7.38;;;5.90;99.90;;;;;;3612629;39;20269;-73
2021/01/19 00:32:32;;;;;;;11.85;5.22;;;5.80;99.90;;;;;;3611677;39;20263;-73
2021/01/19 00:34:58;;;;;;;16.88;8.27;;;5.80;99.90;;;;;;3614489;39;20246;-73
2021/01/19 00:37:25;;;;;;;17.55;6.60;;;5.90;99.90;;;;;;3614173;39;20348;-73
2021/01/19 00:39:51;;;;;;;20.27;6.53;;;6.00;99.90;;;;;;3611166;39;20290;-73
2021/01/19 00:42:18;;;;;;;25.42;7.07;;;6.00;99.90;;;;;;3614121;39;20721;-73
2021/01/19 00:44:44;;;;;;;12.52;5.60;;;6.00;99.90;;;;;;3610935;39;20325;-73
2021/01/19 00:47:12;;;;;;;12.10;6.18;;;6.00;99.90;;;;;;3611295;39;20251;-73
2021/01/19 00:49:39;;;;;;;19.00;6.05;;;6.00;99.90;;;;;;3611112;39;20244;-73
2021/01/19 00:52:06;;;;;;;16.50;5.65;;;6.10;99.90;;;;;;3617125;39;20353;-73
2021/01/19 00:54:32;;;;;;;16.58;6.82;;;6.10;99.90;;;;;;3611125;39;20244;-72
2021/01/19 00:56:59;;;;;;;15.82;6.07;;;6.00;99.90;;;;;;3612576;39;20655;-72
2021/01/19 00:59:25;;;;;;;11.13;5.53;;;6.00;99.90;;;;;;3614825;39;20244;-72
2021/01/19 01:01:52;;;;;;;16.13;5.68;;;6.00;99.90;;;;;;3611720;39;20353;-72
2021/01/19 01:04:19;;;;;;;16.77;5.95;;;6.00;99.90;;;;;;3611428;39;20252;-72
2021/01/19 01:06:51;;;;;;;16.17;6.30;;;6.00;99.90;;;;;;3610842;39;20255;-72
2021/01/19 01:09:18;;;;;;;13.98;5.07;;;6.10;99.90;;;;;;3610693;39;20349;-72
2021/01/19 01:11:44;;;;;;;11.57;5.63;;;6.00;99.90;;;;;;3611271;39;20282;-72
2021/01/19 01:14:12;;;;;;;7.22;4.63;;;6.00;99.90;;;;;;3613353;39;20268;-72
2021/01/19 01:16:38;;;;;;;16.70;4.63;;;6.00;99.90;;;;;;3611542;39;20639;-72
2021/01/19 01:19:06;;;;;;;16.83;5.93;;;6.00;99.90;;;;;;3611289;39;20256;-72
2021/01/19 01:21:36;;;;;;;13.07;3.90;;;6.00;99.90;;;;;;3614430;39;20735;-73
2021/01/19 01:24:03;;;;;;;19.88;5.60;;;6.00;99.90;;;;;;3615464;39;20251;-73
2021/01/19 01:26:30;;;;;;;13.90;5.55;;;5.90;99.90;;;;;;3619128;32;20857;-73
2021/01/19 01:28:56;;;;;;;9.50;4.15;;;5.90;99.90;;;;;;3610968;39;20283;-73
2021/01/19 01:31:23;;;;;;;12.80;4.53;;;5.90;99.90;;;;;;3610812;39;20252;-73
2021/01/19 01:33:49;;;;;;;11.40;3.95;;;5.90;99.90;;;;;;3615884;39;20244;-73
2021/01/19 01:36:16;;;;;;;9.60;3.80;;;5.90;99.90;;;;;;3611359;39;20367;-73
2021/01/19 01:38:44;;;;;;;5.70;3.58;;;5.80;99.90;;;;;;3611541;39;20764;-73
2021/01/19 01:41:15;;;;;;;7.18;3.42;;;5.80;99.90;;;;;;3612227;39;20255;-73
2021/01/19 01:43:41;;;;;;;3.88;2.90;;;5.80;99.90;;;;;;3612368;39;20295;-72
2021/01/19 01:46:10;;;;;;;9.68;3.45;;;5.80;99.90;;;;;;3610580;39;20267;-72
2021/01/19 01:48:38;;;;;;;6.25;3.10;;;5.80;99.90;;;;;;3618843;32;20243;-72
2021/01/19 01:51:05;;;;;;;10.18;3.88;;;5.80;99.90;;;;;;3610624;39;20294;-72
2021/01/19 01:53:32;;;;;;;7.57;3.45;;;5.80;99.90;;;;;;3610260;39;20271;-72
2021/01/19 01:56:00;;;;;;;4.90;3.10;;;5.80;99.90;;;;;;3617458;31;20313;-72
2021/01/19 01:58:26;;;;;;;11.20;3.35;;;5.90;99.90;;;;;;3610343;39;20232;-72
2021/01/19 02:00:54;;;;;;;5.72;3.30;;;5.90;99.90;;;;;;3610698;39;20247;-72
2021/01/19 02:03:20;;;;;;;6.55;3.10;;;5.90;99.90;;;;;;3610803;39;20259;-72
2021/01/19 02:05:47;;;;;;;14.15;2.50;;;5.90;99.90;;;;;;3610748;39;20248;-72
2021/01/19 02:08:25;;;;;;;6.88;3.28;;;5.90;99.90;;;;;;3610360;39;20273;-72
2021/01/19 02:11:10;;;;;;;4.53;2.58;;;5.90;99.90;;;;;;3610044;39;20291;-72
2021/01/19 02:13:44;;;;;;;9.45;3.55;;;5.90;99.90;;;;;;3610064;39;20295;-72
2021/01/19 02:16:23;;;;;;;5.90;3.70;;;5.90;99.90;;;;;;3611615;39;20359;-72
2021/01/19 02:19:03;;;;;;;8.90;2.83;;;5.90;99.90;;;;;;3611488;39;20355;-72
2021/01/19 02:21:55;;;;;;;4.55;2.55;;;5.90;99.90;;;;;;3610689;39;21223;-73
2021/01/19 02:24:32;;;;;;;6.35;2.40;;;5.90;99.90;;;;;;3610818;39;20263;-73
2021/01/19 02:27:12;;;;;;;6.50;2.63;;;5.90;99.90;;;;;;3612682;39;20347;-72
2021/01/19 02:30:05;;;;;;;10.93;2.40;;;5.90;99.90;;;;;;3609816;39;20277;-72
2021/01/19 02:32:42;;;;;;;6.40;2.20;;;5.90;99.90;;;;;;3613269;39;20734;-72
2021/01/19 02:35:14;;;;;;;8.65;2.78;;;5.90;99.90;;;;;;3609724;39;20299;-72
2021/01/19 02:37:50;;;;;;;6.25;2.00;;;5.90;99.90;;;;;;3610385;39;20408;-72
2021/01/19 02:40:18;;;;;;;4.75;2.42;;;5.90;99.90;;;;;;3610322;39;20704;-72
2021/01/19 02:42:51;;;;;;;10.43;2.30;;;5.80;99.90;;;;;;3612314;39;20252;-72
2021/01/19 02:45:19;;;;;;;5.20;1.85;;;5.80;99.90;;;;;;3613027;39;20652;-72
2021/01/19 02:47:47;;;;;;;5.85;2.30;;;5.80;99.90;;;;;;3610646;39;20251;-72
2021/01/19 02:50:13;;;;;;;3.55;1.83;;;5.80;99.90;;;;;;3610466;39;20295;-72
2021/01/19 02:52:41;;;;;;;6.90;2.35;;;5.80;99.90;;;;;;3610202;39;20384;-72
2021/01/19 02:55:10;;;;;;;9.15;2.08;;;5.80;99.90;;;;;;3610348;39;20273;-72
2021/01/19 02:58:07;;;;;;;4.78;1.92;;;5.70;99.90;;;;;;3611821;39;20363;-72
2021/01/19 03:00:42;;;;;;;3.40;1.85;;;5.70;99.90;;;;;;3609473;39;20275;-72
2021/01/19 03:03:11;;;;;;;6.03;2.17;;;5.70;99.90;;;;;;3615775;39;20644;-72
2021/01/19 03:05:39;;;;;;;5.55;2.00;;;5.70;99.90;;;;;;3610243;39;20297;-72
2021/01/19 03:08:08;;;;;;;3.75;1.88;;;5.60;99.90;;;;;;3609851;39;20240;-72
2021/01/19 03:10:38;;;;;;;8.73;2.15;;;5.60;99.90;;;;;;3610592;39;20276;-72
2021/01/19 03:13:05;;;;;;;2.42;1.95;;;5.60;99.90;;;;;;3612300;39;20810;-72
2021/01/19 03:15:31;;;;;;;3.60;1.38;;;5.60;99.90;;;;;;3612728;39;20359;-72
2021/01/19 03:17:58;;;;;;;5.55;1.85;;;5.60;99.90;;;;;;3610604;39;20773;-72
2021/01/19 03:20:27;;;;;;;7.63;1.95;;;5.60;99.90;;;;;;3612487;39;20301;-72
2021/01/19 03:22:53;;;;;;;3.40;1.63;;;5.60;99.90;;;;;;3622402;31;20348;-72
2021/01/19 03:25:20;;;;;;;2.97;1.75;;;5.60;99.90;;;;;;3611425;39;20243;-72
2021/01/19 03:27:46;;;;;;;7.22;2.28;;;5.60;99.90;;;;;;3610460;39;20259;-72
2021/01/19 03:30:14;;;;;;;11.48;2.60;;;5.60;99.90;;;;;;3613065;39;20244;-72
2021/01/19 03:32:40;;;;;;;7.30;2.25;;;5.60;99.90;;;;;;3618929;32;20344;-72
2021/01/19 03:35:07;;;;;;;5.05;2.30;;;5.70;99.90;;;;;;3609587;39;20582;-72
2021/01/19 03:37:35;;;;;;;4.90;3.08;;;5.70;99.90;;;;;;3612630;39;20252;-72
2021/01/19 03:40:03;;;;;;;2.42;1.55;;;5.70;99.90;;;;;;3609701;39;20260;-72
2021/01/19 03:42:30;;;;;;;3.85;2.05;;;5.70;99.90;;;;;;3637821;32;20224;-72
2021/01/19 03:44:56;;;;;;;8.30;1.80;;;5.70;99.90;;;;;;3610541;39;20289;-73
2021/01/19 03:47:23;;;;;;;6.68;2.05;;;5.70;99.90;;;;;;3612469;39;20248;-73
2021/01/19 03:49:49;;;;;;;4.63;2.05;;;5.70;99.90;;;;;;3612077;39;20799;-72
2021/01/19 03:52:16;;;;;;;12.38;2.17;;;5.70;99.90;;;;;;3611364;39;20340;-72
2021/01/19 03:54:43;;;;;;;5.93;2.60;;;5.80;99.90;;;;;;3612110;39;20286;-72
2021/01/19 03:57:10;;;;;;;7.05;2.42;;;5.80;99.90;;;;;;3611415;39;20788;-72
2021/01/19 03:59:36;;;;;;;7.70;2.33;;;5.80;99.90;;;;;;3612630;32;20289;-72
2021/01/19 04:02:03;;;;;;;4.72;2.28;;;5.80;99.90;;;;;;3612784;39;20299;-72
2021/01/19 04:04:29;;;;;;;6.18;1.90;;;5.90;99.90;;;;;;3615169;39;20285;-72
2021/01/19 04:06:55;;;;;;;4.75;2.22;;;5.90;99.90;;;;;;3615146;39;20271;-72
2021/01/19 04:09:22;;;;;;;6.35;2.00;;;5.80;99.90;;;;;;3615358;39;20333;-72
2021/01/19 04:11:49;;;;;;;7.72;2.20;;;5.90;99.90;;;;;;3611797;39;20259;-72
2021/01/19 04:14:16;;;;;;;5.18;2.30;;;5.80;99.90;;;;;;3611666;39;20280;-72
2021/01/19 04:16:42;;;;;;;6.65;2.40;;;5.80;99.90;;;;;;3611701;39;20232;-72
2021/01/19 04:19:09;;;;;;;6.50;2.17;;;5.80;99.90;;;;;;3631543;32;20339;-72
2021/01/19 04:21:35;;;;;;;5.43;2.30;;;5.70;99.90;;;;;;3628191;32;20271;-72
2021/01/19 04:24:02;;;;;;;6.30;2.33;;;5.70;99.90;;;;;;3611593;39;20399;-72
2021/01/19 04:26:28;;;;;;;6.13;2.20;;;5.60;99.90;;;;;;3615169;39;20283;-73
2021/01/19 04:28:56;;;;;;;4.50;2.25;;;5.60;99.90;;;;;;3611789;39;21276;-72
2021/01/19 04:31:22;;;;;;;7.50;2.45;;;5.50;99.90;;;;;;3612532;39;20239;-72
2021/01/19 04:33:49;;;;;;;12.90;3.92;;;5.50;99.90;;;;;;3611727;39;20273;-72
2021/01/19 04:36:15;;;;;;;9.77;3.13;;;5.50;99.90;;;;;;3611623;39;20291;-72
2021/01/19 04:38:42;;;;;;;5.45;3.33;;;5.40;99.90;;;;;;3611869;39;20377;-73
2021/01/19 04:41:09;;;;;;;8.30;3.03;;;5.40;99.90;;;;;;3611446;39;20259;-72
2021/01/19 04:43:36;;;;;;;11.55;2.97;;;5.40;99.90;;;;;;3613565;39;20377;-72
2021/01/19 04:46:05;;;;;;;8.13;3.30;;;5.40;99.90;;;;;;3620842;32;20262;-72
2021/01/19 04:48:32;;;;;;;6.03;2.85;;;5.30;99.90;;;;;;3611026;39;20305;-72
2021/01/19 04:50:59;;;;;;;5.47;3.28;;;5.30;99.90;;;;;;3614332;39;20326;-72
2021/01/19 04:53:29;;;;;;;9.15;3.20;;;5.20;99.90;;;;;;3610931;39;20635;-72
2021/01/19 04:56:03;;;;;;;8.73;3.60;;;5.10;99.90;;;;;;3611734;39;20282;-72
2021/01/19 04:58:31;;;;;;;12.13;3.75;;;5.20;99.90;;;;;;3612179;39;20306;-72
2021/01/19 05:01:07;;;;;;;10.75;3.30;;;5.10;99.90;;;;;;3613031;39;20233;-72
2021/01/19 05:03:39;;;;;;;6.20;3.35;;;5.10;99.90;;;;;;3611157;39;20243;-72
2021/01/19 05:07:09;;;;;;;8.98;3.65;;;5.20;99.90;;;;;;3610895;39;20284;-72
2021/01/19 05:09:36;;;;;;;9.77;3.90;;;5.20;99.90;;;;;;3607886;32;20877;-72
2021/01/19 05:12:05;;;;;;;5.50;3.17;;;5.10;99.90;;;;;;3586822;40;20241;-72
2021/01/19 05:14:37;;;;;;;6.88;3.25;;;5.10;99.90;;;;;;3586926;40;20272;-72
2021/01/19 05:17:05;;;;;;;9.27;3.88;;;5.10;99.90;;;;;;3586589;40;20256;-72
2021/01/19 05:19:32;;;;;;;9.48;3.28;;;5.10;99.90;;;;;;3587276;40;20248;-72
2021/01/19 05:21:59;;;;;;;7.95;4.32;;;5.10;99.90;;;;;;3586882;40;20260;-73
2021/01/19 05:24:25;;;;;;;12.70;4.20;;;5.10;99.90;;;;;;3586693;40;20248;-72
2021/01/19 05:26:52;;;;;;;9.90;4.50;;;5.00;99.90;;;;;;3586494;40;20252;-72
2021/01/19 05:29:19;;;;;;;11.98;3.80;;;5.00;99.90;;;;;;3587391;40;20370;-72
2021/01/19 05:31:51;;;;;;;5.55;3.97;;;5.00;99.90;;;;;;3597161;32;20281;-72
2021/01/19 05:34:18;;;;;;;5.78;3.92;;;5.00;99.90;;;;;;3586694;40;20370;-73
2021/01/19 05:36:47;;;;;;;9.45;4.50;;;5.00;99.90;;;;;;3587110;40;20267;-73
2021/01/19 05:39:16;;;;;;;9.88;4.05;;;5.10;99.90;;;;;;3586647;40;20273;-73
2021/01/19 05:41:44;;;;;;;12.60;3.97;;;5.00;99.90;;;;;;3587020;40;20256;-72
2021/01/19 05:44:13;;;;;;;14.77;3.97;;;5.00;99.90;;;;;;3609014;39;20275;-73
2021/01/19 05:46:43;;;;;;;8.50;3.78;;;5.00;99.90;;;;;;3612074;39;20283;-73
2021/01/19 05:49:15;;;;;;;15.80;5.03;;;5.00;99.90;;;;;;3612359;39;20307;-73
2021/01/19 05:51:44;;;;;;;6.97;3.80;;;4.90;99.90;;;;;;3614278;39;20267;-73
2021/01/19 05:54:21;;;;;;;8.68;4.72;;;4.90;99.90;;;;;;3612247;39;20280;-73
2021/01/19 05:56:49;;;;;;;10.65;4.03;;;4.90;99.90;;;;;;3613427;39;20239;-73
2021/01/19 05:59:30;;;;;;;18.38;5.20;;;4.90;99.90;;;;;;3610631;39;20251;-73
2021/01/19 06:01:59;;;;;;;9.98;4.65;;;4.90;99.90;;;;;;3610799;39;20359;-73
2021/01/19 06:04:31;;;;;;;9.32;5.15;;;4.90;99.90;;;;;;3630296;32;20289;-72
2021/01/19 06:06:59;;;;;;;12.25;4.28;;;4.90;99.90;;;;;;3610932;39;20644;-73
2021/01/19 06:09:26;;;;;;;8.00;4.03;;;4.90;99.90;;;;;;3610099;39;20265;-73
2021/01/19 06:11:53;;;;;;;14.00;4.60;;;4.90;99.90;;;;;;3614024;39;20259;-73
2021/01/19 06:14:24;;;;;;;10.57;5.28;;;5.00;99.90;;;;;;3610434;39;20303;-73
2021/01/19 06:16:50;;;;;;;10.95;4.93;;;5.00;99.90;;;;;;3610487;39;20243;-73
2021/01/19 06:19:27;;;;;;;11.45;4.63;;;4.90;99.90;;;;;;3614045;39;20252;-73
2021/01/19 06:21:53;;;;;;;11.07;4.85;;;4.90;99.90;;;;;;3610540;39;20251;-73
2021/01/19 06:24:31;;;;;;;14.85;4.72;;;4.90;99.90;;;;;;3610215;39;20248;-73
2021/01/19 06:26:58;;;;;;;8.15;3.90;;;4.90;99.90;;;;;;3612233;39;20587;-73
2021/01/19 06:29:25;;;;;;;6.38;4.05;;;5.00;99.90;;;;;;3610681;39;20252;-73
2021/01/19 06:31:52;;;;;;;14.50;4.50;;;4.90;99.90;;;;;;3611204;39;20294;-73
2021/01/19 06:34:26;;;;;;;7.75;3.83;;;4.90;99.90;;;;;;3610365;39;20260;-72
2021/01/19 06:36:52;;;;;;;6.07;3.95;;;4.90;99.90;;;;;;3616909;39;20262;-73
2021/01/19 06:39:34;;;;;;;19.02;4.88;;;5.00;99.90;;;;;;3611941;39;20267;-73
2021/01/19 06:42:09;;;;;;;11.05;4.18;;;5.00;99.90;;;;;;3610326;39;20290;-73
2021/01/19 06:44:38;;;;;;;16.95;4.10;;;5.10;99.90;;;;;;3610096;39;20263;-73
2021/01/19 06:47:06;;;;;;;11.13;3.55;;;5.10;99.90;;;;;;3609911;39;20259;-73
2021/01/19 06:49:34;;;;;;;13.20;3.70;;;5.10;99.90;;;;;;3611889;39;20248;-72
2021/01/19 06:52:06;;;;;;;17.02;3.00;;;5.10;99.90;;;;;;3614251;39;20948;-73
2021/01/19 06:54:42;;;;;;;5.63;3.33;;;5.10;99.90;;;;;;3612569;39;20248;-73
2021/01/19 06:57:22;;;;;;;10.70;3.63;;;5.10;99.90;;;;;;3650204;32;20255;-73
2021/01/19 07:00:02;;;;;;;7.20;3.22;;;5.20;99.90;;;;;;3613124;39;20358;-73
2021/01/19 07:02:35;;;;;;;5.05;2.80;;;5.20;99.90;;;;;;3610201;39;20312;-73
2021/01/19 07:05:10;;;;;;;13.07;3.88;;;5.20;99.90;;;;;;3610129;39;20645;-73
2021/01/19 07:07:41;;;;;;;6.47;2.60;;;5.20;99.90;;;;;;3610261;39;20290;-72
2021/01/19 07:10:19;;;;;;;4.70;2.35;;;5.30;99.90;;;;;;3647467;32;20264;-73
2021/01/19 07:13:03;;;;;;;2.30;2.10;;;5.30;99.90;;;;;;3610035;39;20295;-73
2021/01/19 07:16:00;;;;;;;4.75;2.17;;;5.40;99.90;;;;;;3613189;39;20266;-73
2021/01/19 07:18:53;;;;;;;4.55;2.15;;;5.40;99.90;;;;;;3608312;39;20255;-73
2021/01/19 07:21:21;;;;;;;2.70;1.90;;;5.40;99.90;;;;;;3614338;39;20255;-73
2021/01/19 07:24:27;;;;;;;3.17;1.98;;;5.50;99.90;;;;;;3612219;39;20282;-73
2021/01/19 07:26:59;;;;;;;3.83;1.80;;;5.50;99.90;;;;;;3619696;32;20255;-73
2021/01/19 07:29:26;;;;;;;4.00;1.50;;;5.50;99.90;;;;;;3611164;39;20120;-73
2021/01/19 07:31:52;;;;;;;2.70;1.60;;;5.50;99.90;;;;;;3611845;39;20279;-73
2021/01/19 07:34:20;;;;;;;2.33;1.73;;;5.50;99.90;;;;;;3614327;39;20336;-73
2021/01/19 07:36:54;;;;;;;4.03;2.03;;;5.50;99.90;;;;;;3614341;39;20275;-73
2021/01/19 07:39:21;;;;;;;7.97;1.65;;;5.50;99.90;;;;;;3611746;39;20228;-72
2021/01/19 07:41:48;;;;;;;2.83;1.75;;;5.50;99.90;;;;;;3614786;39;20768;-73
2021/01/19 07:44:23;;;;;;;4.35;2.03;;;5.50;99.90;;;;;;3612111;39;20283;-73
2021/01/19 07:46:50;;;;;;;2.55;1.80;;;5.50;99.90;;;;;;3614558;39;20263;-73
2021/01/19 07:49:17;;;;;;;3.13;1.63;;;5.50;99.90;;;;;;3614275;39;20274;-73
2021/01/19 07:51:45;;;;;;;4.35;1.90;;;5.60;99.90;;;;;;3611975;39;20272;-73
2021/01/19 07:54:13;;;;;;;4.70;2.03;;;5.60;99.90;;;;;;3611405;39;20293;-73
2021/01/19 07:56:40;;;;;;;3.60;1.70;;;5.60;99.90;;;;;;3613594;39;20283;-73
2021/01/19 07:59:17;;;;;;;7.20;1.52;;;5.60;99.90;;;;;;3611832;39;20274;-73
2021/01/19 08:01:55;;;;;;;1.98;1.85;;;5.60;99.90;;;;;;3612303;39;20262;-74
2021/01/19 08:04:29;;;;;;;5.45;1.90;;;5.60;99.90;;;;;;3614244;39;20287;-74
2021/01/19 08:06:55;;;;;;;2.38;1.67;;;5.60;99.90;;;;;;3618254;39;20260;-74
2021/01/19 08:09:22;;;;;;;1.95;1.85;;;5.60;99.90;;;;;;3611417;39;20276;-73
2021/01/19 08:12:04;;;;;;;2.65;1.50;;;5.60;99.90;;;;;;3611896;39;20236;-73
2021/01/19 08:14:35;;;;;;;2.65;1.30;;;5.60;99.90;;;;;;3613295;39;20260;-73
2021/01/19 08:17:04;;;;;;;2.10;1.92;;;5.60;99.90;;;;;;3614781;39;20283;-73
2021/01/19 08:19:39;;;;;;;1.80;1.70;;;5.60;99.90;;;;;;3611650;39;20276;-74
2021/01/19 08:22:06;;;;;;;3.22;1.80;;;5.60;99.90;;;;;;3611755;39;20269;-73
2021/01/19 08:24:33;;;;;;;7.45;2.28;;;5.60;99.90;;;;;;3611035;39;20256;-74
2021/01/19 08:27:01;;;;;;;2.75;2.17;;;5.60;99.90;;;;;;3614571;39;20277;-73
2021/01/19 08:29:28;;;;;;;3.50;1.63;;;5.60;99.90;;;;;;3611511;39;20344;-73
2021/01/19 08:31:56;;;;;;;5.60;2.03;;;5.60;99.90;;;;;;3610826;39;20292;-73
2021/01/19 08:34:26;;;;;;;3.08;1.92;;;5.70;99.90;;;;;;3611264;39;20260;-73
2021/01/19 08:36:54;;;;;;;5.13;2.70;;;5.70;99.90;;;;;;3611614;39;20264;-74
2021/01/19 08:39:21;;;;;;;5.28;1.67;;;5.70;99.90;;;;;;3611279;39;20248;-74
2021/01/19 08:41:49;;;;;;;5.85;2.50;;;5.70;99.90;;;;;;3613671;39;20269;-73
2021/01/19 08:44:16;;;;;;;4.15;1.73;;;5.70;99.90;;;;;;3612848;39;20314;-73
2021/01/19 08:46:44;;;;;;;7.95;2.80;;;5.70;99.90;;;;;;3614904;39;20231;-73
2021/01/19 08:49:12;;;;;;;5.47;2.25;;;5.70;99.90;;;;;;3611095;39;20250;-74
2021/01/19 08:51:43;;;;;;;2.15;1.95;;;5.70;99.90;;;;;;3614559;39;20756;-73
2021/01/19 08:54:10;;;;;;;5.78;2.28;;;5.60;99.90;;;;;;3618367;39;20247;-74
2021/01/19 08:56:39;;;;;;;4.95;1.75;;;5.70;99.90;;;;;;3611890;39;20294;-74
2021/01/19 08:59:06;;;;;;;5.80;1.90;;;5.70;99.90;;;;;;3611336;39;20319;-74
2021/01/19 09:01:33;;;;;;;8.85;1.98;;;5.70;99.90;;;;;;3610927;39;20333;-74
2021/01/19 09:04:01;;;;;;;3.20;2.20;;;5.70;99.90;;;;;;3614332;39;20267;-73
2021/01/19 09:06:28;;;;;;;4.90;2.10;;;5.80;99.90;;;;;;3610862;39;20458;-74
2021/01/19 09:08:58;;;;;;;2.75;1.80;;;5.70;99.90;;;;;;3610610;39;20279;-74
2021/01/19 09:11:30;;;;;;;4.38;1.70;;;5.70;99.90;;;;;;3610808;39;20271;-73
2021/01/19 09:14:03;;;;;;;4.05;2.10;;;5.70;99.90;;;;;;3611257;39;20266;-73
2021/01/19 09:16:32;;;;;;;2.15;2.03;;;5.80;99.90;;;;;;3610756;39;20708;-74
2021/01/19 09:19:00;;;;;;;4.55;2.15;;;5.70;99.90;;;;;;3610952;39;20283;-75
2021/01/19 09:21:28;;;;;;;2.75;2.15;;;5.70;99.90;;;;;;3614425;39;20247;-75
2021/01/19 09:23:56;;;;;;;10.55;1.75;;;5.70;99.90;;;;;;3612763;39;20256;-75
2021/01/19 09:26:23;;;;;;;1.70;1.60;;;5.80;99.90;;;;;;3615108;39;20256;-75
2021/01/19 09:28:50;;;;;;;2.58;1.77;;;5.80;99.90;;;;;;3612872;39;20285;-75
2021/01/19 09:31:18;;;;;;;1.95;1.85;;;5.80;99.90;;;;;;3610939;39;20263;-77
2021/01/19 09:33:47;;;;;;;3.13;2.05;;;5.80;99.90;;;;;;3612618;39;20248;-75
2021/01/19 09:36:14;;;;;;;7.20;2.17;;;5.80;99.90;;;;;;3610617;39;20336;-74
2021/01/19 09:38:42;;;;;;;3.78;1.88;;;5.80;99.90;;;;;;3611147;39;20309;-75
2021/01/19 09:41:15;;;;;;;4.15;1.83;;;5.90;99.90;;;;;;3614531;32;20371;-76
2021/01/19 09:43:45;;;;;;;3.80;2.05;;;5.90;99.90;;;;;;3610413;39;20298;-76
2021/01/19 09:46:12;;;;;;;2.78;2.13;;;5.90;99.90;;;;;;3613568;39;20259;-74
2021/01/19 09:48:39;;;;;;;3.30;2.53;;;5.90;99.90;;;;;;3610008;39;20407;-74
2021/01/19 09:51:07;;;;;;;1.42;1.25;;;5.90;99.90;;;;;;3610993;39;20271;-75
2021/01/19 09:53:35;;;;;;;1.83;1.67;;;5.90;99.90;;;;;;3614672;39;20256;-75
2021/01/19 09:56:01;;;;;;;6.38;1.50;;;5.90;99.90;;;;;;3613377;39;20279;-75
2021/01/19 09:58:29;;;;;;;5.00;1.65;;;6.00;99.90;;;;;;3617435;39;20224;-74
2021/01/19 10:00:56;;;;;;;3.22;1.65;;;5.90;99.90;;;;;;3611095;39;20309;-74
2021/01/19 10:03:26;;;;;;;2.97;1.67;;;6.00;99.90;;;;;;3610984;39;20641;-75
2021/01/19 10:06:01;;;;;;;3.15;2.42;;;6.00;99.90;;;;;;3616866;32;20286;-75
2021/01/19 10:08:27;;;;;;;3.10;2.15;;;6.00;99.90;;;;;;3614234;39;20263;-74
2021/01/19 10:10:55;;;;;;;2.72;1.48;;;6.00;99.90;;;;;;3610759;39;20248;-74
2021/01/19 10:13:31;;;;;;;1.63;1.52;;;6.00;99.90;;;;;;3625982;32;20260;-74
2021/01/19 10:16:03;;;;;;;4.70;1.50;;;6.10;99.90;;;;;;3613053;39;20263;-74
2021/01/19 10:18:31;;;;;;;1.42;1.33;;;6.10;99.90;;;;;;3617486;39;20247;-73
2021/01/19 10:20:58;;;;;;;5.63;1.52;;;6.10;99.90;;;;;;3610244;39;20811;-74
2021/01/19 10:23:29;;;;;;;2.30;2.10;;;6.10;99.90;;;;;;3609972;39;20287;-73
2021/01/19 10:26:06;;;;;;;1.88;1.77;;;6.10;99.90;;;;;;3612195;39;20248;-74
2021/01/19 10:28:42;;;;;;;2.28;1.70;;;6.20;99.90;;;;;;3609736;39;20274;-74
2021/01/19 10:31:15;;;;;;;1.83;1.73;;;6.20;99.90;;;;;;3612297;39;20308;-74
2021/01/19 10:34:04;;;;;;;3.28;2.38;;;6.20;99.90;;;;;;3609955;39;20259;-75
2021/01/19 10:36:31;;;;;;;3.05;1.52;;;6.20;99.90;;;;;;3610043;39;20255;-75
2021/01/19 10:39:06;;;;;;;2.45;1.88;;;6.30;99.90;;;;;;3611270;39;20256;-76
2021/01/19 10:41:33;;;;;;;2.65;1.80;;;6.40;99.90;;;;;;3613641;32;21057;-75
2021/01/19 10:44:01;;;;;;;2.20;2.00;;;6.40;99.90;;;;;;3613316;39;20247;-75
2021/01/19 10:46:31;;;;;;;3.70;1.40;;;6.40;99.90;;;;;;3615010;39;20278;-75
2021/01/19 10:49:03;;;;;;;1.73;1.50;;;6.40;99.90;;;;;;3612696;39;20248;-75
2021/01/19 10:51:30;;;;;;;2.33;1.50;;;6.50;99.90;;;;;;3612903;39;20451;-74
2021/01/19 10:54:11;;;;;;;2.15;1.25;;;6.50;99.90;;;;;;3612848;39;20259;-74
2021/01/19 10:56:39;;;;;;;1.90;1.60;;;6.50;99.90;;;;;;3609926;39;20282;-74
2021/01/19 10:59:08;;;;;;;1.50;1.40;;;6.50;99.90;;;;;;3613969;32;20260;-73
2021/01/19 11:47:13;;;;;;;1.95;1.75;;;7.00;99.90;;;;;;3617375;32;20220;-78
2021/01/19 12:25:58;;;;;;;6.55;3.50;;;7.30;99.90;;;;;;3634961;32;20353;-78
2021/01/19 13:09:44;;;;;;;3.20;2.97;;;7.70;99.90;;;;;;3639036;32;20418;-76
2021/01/19 13:12:11;;;;;;;3.53;3.22;;;7.70;99.90;;;;;;3623718;39;20255;-76
2021/01/19 13:25:38;;;;;;;5.13;3.80;;;7.90;99.90;;;;;;3632641;32;20263;-78
2021/01/19 13:57:55;;;;;;;4.60;3.75;;;8.10;99.90;;;;;;3633852;32;20289;-78
2021/01/19 14:13:21;;;;;;;4.32;3.70;;;8.30;99.90;;;;;;3643318;32;20293;-80
2021/01/19 15:04:41;;;;;;;9.18;5.43;;;8.50;99.90;;;;;;3644746;32;20271;-77
2021/01/19 15:07:09;;;;;;;10.07;6.22;;;8.50;99.90;;;;;;3624475;39;20286;-76
2021/01/19 15:09:36;;;;;;;8.60;6.70;;;8.50;99.90;;;;;;3623019;39;20275;-77
2021/01/19 15:12:05;;;;;;;7.63;6.47;;;8.50;99.90;;;;;;3620830;39;20275;-77
2021/01/19 15:29:28;;;;;;;6.90;5.03;;;8.50;99.90;;;;;;3629763;32;20371;-76
2021/01/19 16:10:16;;;;;;;7.20;6.15;;;8.30;99.90;;;;;;3644646;32;20275;-77
2021/01/19 16:26:39;;;;;;;9.63;6.45;;;8.20;99.90;;;;;;3624530;32;20309;-78
2021/01/19 17:16:44;;;;;;;10.35;8.45;;;8.40;99.90;;;;;;3630314;32;20251;-76
2021/01/19 17:19:11;;;;;;;11.25;7.32;;;8.30;99.90;;;;;;3625894;39;20275;-74
2021/01/19 17:29:44;;;;;;;8.82;7.28;;;8.20;99.90;;;;;;3636632;32;20247;-77
2021/01/19 17:41:43;;;;;;;8.70;7.80;;;8.20;99.90;;;;;;3645256;32;20285;-77
2021/01/19 17:44:09;;;;;;;10.77;8.27;;;8.20;99.90;;;;;;3623678;39;20351;-77
2021/01/19 17:57:23;;;;;;;11.80;9.45;;;8.10;99.90;;;;;;3641911;32;20307;-77
2021/01/19 18:10:34;;;;;;;10.43;8.73;;;7.90;99.90;;;;;;3623282;32;20253;-77
2021/01/19 18:13:30;;;;;;;11.90;8.88;;;7.90;99.90;;;;;;3622847;39;20267;-77
2021/01/19 18:22:41;;;;;;;11.07;8.30;;;7.80;99.90;;;;;;3620416;32;20301;-77
2021/01/19 18:48:07;;;;;;;8.98;6.53;;;7.50;99.90;;;;;;3638968;32;20223;-77
2021/01/19 18:56:03;;;;;;;9.23;6.40;;;7.40;99.90;;;;;;3621212;32;20360;-77
2021/01/19 18:58:30;;;;;;;12.63;6.63;;;7.40;99.90;;;;;;3624494;39;20383;-77
2021/01/19 19:09:59;;;;;;;9.68;6.65;;;7.20;99.90;;;;;;3679134;32;20255;-77
2021/01/19 19:12:26;;;;;;;7.80;5.80;;;7.10;99.90;;;;;;3625793;39;20232;-77
2021/01/19 19:31:58;;;;;;;6.13;5.05;;;7.00;99.90;;;;;;3628205;32;20758;-77
2021/01/19 19:51:28;;;;;;;7.70;5.13;;;6.90;99.90;;;;;;3644213;32;20280;-77
2021/01/19 19:53:54;;;;;;;6.32;4.55;;;6.90;99.90;;;;;;3625631;39;20251;-77
2021/01/19 20:04:35;;;;;;;7.93;5.63;;;6.80;99.90;;;;;;3639244;32;20264;-77
2021/01/19 20:57:54;;;;;;;9.80;6.13;;;6.90;99.90;;;;;;3641367;32;21009;-76
2021/01/19 21:00:21;;;;;;;12.55;5.15;;;6.90;99.90;;;;;;3621293;39;20259;-77
2021/01/19 21:13:48;;;;;;;10.88;5.45;;;7.00;99.90;;;;;;3632520;32;20611;-77
2021/01/19 21:16:15;;;;;;;14.10;5.78;;;7.00;99.90;;;;;;3620786;39;20282;-77
2021/01/19 21:26:54;;;;;;;11.55;5.32;;;7.00;99.90;;;;;;3628720;32;20794;-77
2021/01/19 21:39:30;;;;;;;9.15;4.75;;;7.00;99.90;;;;;;3630257;32;20374;-77
2021/01/19 21:41:57;;;;;;;11.35;5.80;;;6.90;99.90;;;;;;3621482;39;20285;-77
2021/01/19 21:57:49;;;;;;;7.72;4.88;;;6.90;99.90;;;;;;3622224;32;20255;-77
2021/01/19 22:00:16;;;;;;;7.88;4.22;;;7.00;99.90;;;;;;3622489;39;20247;-76
2021/01/19 22:16:40;;;;;;;10.88;5.18;;;7.00;99.90;;;;;;3653702;32;20239;-77
2021/01/19 22:19:06;;;;;;;7.78;4.35;;;7.00;99.90;;;;;;3621392;39;20251;-77
2021/01/19 22:21:33;;;;;;;5.55;4.03;;;7.00;99.90;;;;;;3620469;39;20275;-77
2021/01/19 22:32:04;;;;;;;7.88;4.28;;;7.00;99.90;;;;;;3619766;32;20255;-77
2021/01/19 22:34:30;;;;;;;5.75;4.00;;;7.00;99.90;;;;;;3620751;39;20330;-77
2021/01/19 22:36:57;;;;;;;6.80;4.05;;;7.00;99.90;;;;;;3620351;39;20267;-77
2021/01/19 22:47:42;;;;;;;8.70;4.03;;;7.00;99.90;;;;;;3620255;32;20251;-76
2021/01/19 22:50:10;;;;;;;8.52;3.97;;;7.00;99.90;;;;;;3623856;39;20287;-77
2021/01/19 22:52:36;;;;;;;7.80;4.28;;;7.10;99.90;;;;;;3623372;39;20266;-75
2021/01/19 22:55:03;;;;;;;6.55;4.32;;;7.10;99.90;;;;;;3620847;39;20315;-77
2021/01/19 22:57:30;;;;;;;9.45;4.35;;;7.10;99.90;;;;;;3623492;39;20249;-77